sensor_id;sensor_type;location;lat;lon;timestamp;pressure;altitude;pressure_sealevel;temperature;humidity
74708;BME280;63360;50.104;8.074;2023-04-01T00:00:55;95427.19;;;8.43;90.26
74708;BME280;63360;50.104;8.074;2023-04-01T00:03:22;95433.94;;;8.47;89.71
74708;BME280;63360;50.104;8.074;2023-04-01T00:05:49;95420.59;;;8.45;89.29
74708;BME280;63360;50.104;8.074;2023-04-01T00:08:16;95422.94;;;8.50;88.63
74708;BME280;63360;50.104;8.074;2023-04-01T00:10:42;95425.19;;;8.52;90.02
74708;BME280;63360;50.104;8.074;2023-04-01T00:13:09;95435.03;;;8.46;90.99
74708;BME280;63360;50.104;8.074;2023-04-01T00:15:36;95424.16;;;8.41;90.84
74708;BME280;63360;50.104;8.074;2023-04-01T00:18:03;95432.38;;;8.43;91.34
74708;BME280;63360;50.104;8.074;2023-04-01T00:20:30;95426.56;;;8.34;91.60
74708;BME280;63360;50.104;8.074;2023-04-01T00:22:56;95426.75;;;8.41;91.45
74708;BME280;63360;50.104;8.074;2023-04-01T00:25:23;95422.31;;;8.41;91.19
74708;BME280;63360;50.104;8.074;2023-04-01T00:27:49;95422.00;;;8.43;90.67
74708;BME280;63360;50.104;8.074;2023-04-01T00:30:16;95418.91;;;8.37;91.63
74708;BME280;63360;50.104;8.074;2023-04-01T00:32:43;95422.16;;;8.34;92.24
74708;BME280;63360;50.104;8.074;2023-04-01T00:35:10;95423.56;;;8.32;91.45
74708;BME280;63360;50.104;8.074;2023-04-01T00:37:37;95409.47;;;8.17;93.44
74708;BME280;63360;50.104;8.074;2023-04-01T00:40:07;95422.41;;;8.29;92.91
74708;BME280;63360;50.104;8.074;2023-04-01T00:42:33;95408.72;;;8.17;92.40
74708;BME280;63360;50.104;8.074;2023-04-01T00:47:52;95416.47;;;8.29;91.81
74708;BME280;63360;50.104;8.074;2023-04-01T00:50:21;95421.50;;;8.25;92.83
74708;BME280;63360;50.104;8.074;2023-04-01T00:52:48;95422.09;;;8.19;93.66
74708;BME280;63360;50.104;8.074;2023-04-01T00:55:16;95419.09;;;8.17;93.38
74708;BME280;63360;50.104;8.074;2023-04-01T00:57:44;95424.59;;;8.15;93.33
74708;BME280;63360;50.104;8.074;2023-04-01T01:00:14;95418.00;;;8.18;93.39
74708;BME280;63360;50.104;8.074;2023-04-01T01:02:41;95416.00;;;8.11;94.44
74708;BME280;63360;50.104;8.074;2023-04-01T01:05:14;95409.72;;;8.12;93.11
74708;BME280;63360;50.104;8.074;2023-04-01T01:07:51;95416.66;;;8.08;94.50
74708;BME280;63360;50.104;8.074;2023-04-01T01:10:30;95415.13;;;8.07;94.74
74708;BME280;63360;50.104;8.074;2023-04-01T01:15:37;95415.13;;;8.07;95.13
74708;BME280;63360;50.104;8.074;2023-04-01T01:18:09;95422.66;;;8.12;94.86
74708;BME280;63360;50.104;8.074;2023-04-01T01:24:08;95422.38;;;8.02;94.92
74708;BME280;63360;50.104;8.074;2023-04-01T01:34:41;95400.69;;;8.06;93.91
74708;BME280;63360;50.104;8.074;2023-04-01T01:37:15;95394.56;;;7.99;93.10
74708;BME280;63360;50.104;8.074;2023-04-01T01:39:44;95396.16;;;8.03;94.27
74708;BME280;63360;50.104;8.074;2023-04-01T01:42:15;95411.06;;;8.06;93.16
74708;BME280;63360;50.104;8.074;2023-04-01T01:44:44;95396.81;;;8.00;92.28
74708;BME280;63360;50.104;8.074;2023-04-01T01:47:13;95402.31;;;7.99;92.89
74708;BME280;63360;50.104;8.074;2023-04-01T01:49:41;95404.22;;;8.14;91.50
74708;BME280;63360;50.104;8.074;2023-04-01T01:52:08;95392.56;;;8.08;90.72
74708;BME280;63360;50.104;8.074;2023-04-01T01:54:35;95387.31;;;8.04;90.95
74708;BME280;63360;50.104;8.074;2023-04-01T01:57:06;95393.34;;;8.08;90.08
74708;BME280;63360;50.104;8.074;2023-04-01T01:59:35;95392.69;;;8.11;91.05
74708;BME280;63360;50.104;8.074;2023-04-01T02:02:05;95392.75;;;8.15;89.90
74708;BME280;63360;50.104;8.074;2023-04-01T02:04:36;95399.88;;;8.18;88.86
74708;BME280;63360;50.104;8.074;2023-04-01T02:07:05;95387.66;;;8.18;89.15
74708;BME280;63360;50.104;8.074;2023-04-01T02:09:33;95392.03;;;8.14;89.14
74708;BME280;63360;50.104;8.074;2023-04-01T02:12:03;95391.69;;;8.16;88.94
74708;BME280;63360;50.104;8.074;2023-04-01T02:14:51;95390.09;;;8.11;89.94
74708;BME280;63360;50.104;8.074;2023-04-01T02:17:21;95409.91;;;8.19;88.89
74708;BME280;63360;50.104;8.074;2023-04-01T02:20:00;95400.72;;;8.22;89.10
74708;BME280;63360;50.104;8.074;2023-04-01T02:22:36;95397.56;;;8.28;88.66
74708;BME280;63360;50.104;8.074;2023-04-01T02:25:06;95401.47;;;8.22;87.74
74708;BME280;63360;50.104;8.074;2023-04-01T02:27:33;95409.66;;;8.24;88.67
74708;BME280;63360;50.104;8.074;2023-04-01T02:30:00;95399.09;;;8.17;88.40
74708;BME280;63360;50.104;8.074;2023-04-01T02:32:27;95394.09;;;8.09;89.71
74708;BME280;63360;50.104;8.074;2023-04-01T02:34:56;95399.19;;;8.05;89.78
74708;BME280;63360;50.104;8.074;2023-04-01T02:37:22;95397.19;;;8.14;88.34
74708;BME280;63360;50.104;8.074;2023-04-01T02:39:49;95395.34;;;8.15;88.35
74708;BME280;63360;50.104;8.074;2023-04-01T02:42:15;95389.19;;;8.19;89.30
74708;BME280;63360;50.104;8.074;2023-04-01T02:44:42;95402.78;;;8.16;89.00
74708;BME280;63360;50.104;8.074;2023-04-01T02:47:08;95393.00;;;8.10;89.27
74708;BME280;63360;50.104;8.074;2023-04-01T02:49:35;95382.47;;;8.03;89.64
74708;BME280;63360;50.104;8.074;2023-04-01T02:52:01;95394.13;;;7.97;91.63
74708;BME280;63360;50.104;8.074;2023-04-01T02:54:27;95387.22;;;8.01;90.20
74708;BME280;63360;50.104;8.074;2023-04-01T02:56:54;95393.25;;;8.05;90.35
74708;BME280;63360;50.104;8.074;2023-04-01T02:59:20;95392.81;;;8.03;89.54
74708;BME280;63360;50.104;8.074;2023-04-01T03:01:46;95400.50;;;7.99;91.18
74708;BME280;63360;50.104;8.074;2023-04-01T03:04:13;95392.56;;;8.08;89.56
74708;BME280;63360;50.104;8.074;2023-04-01T03:06:39;95387.53;;;7.99;90.87
74708;BME280;63360;50.104;8.074;2023-04-01T03:09:06;95397.59;;;8.01;91.99
74708;BME280;63360;50.104;8.074;2023-04-01T03:11:32;95387.19;;;7.85;92.60
74708;BME280;63360;50.104;8.074;2023-04-01T03:13:58;95391.78;;;7.91;92.81
74708;BME280;63360;50.104;8.074;2023-04-01T03:16:25;95385.84;;;7.91;93.03
74708;BME280;63360;50.104;8.074;2023-04-01T03:18:51;95394.78;;;7.93;92.91
74708;BME280;63360;50.104;8.074;2023-04-01T03:21:21;95398.13;;;7.94;91.69
74708;BME280;63360;50.104;8.074;2023-04-01T03:23:48;95399.13;;;7.89;93.21
74708;BME280;63360;50.104;8.074;2023-04-01T03:26:15;95385.91;;;7.79;94.17
74708;BME280;63360;50.104;8.074;2023-04-01T03:28:42;95376.91;;;7.88;92.84
74708;BME280;63360;50.104;8.074;2023-04-01T03:31:09;95384.59;;;7.85;93.39
74708;BME280;63360;50.104;8.074;2023-04-01T03:33:35;95393.09;;;7.85;95.05
74708;BME280;63360;50.104;8.074;2023-04-01T03:36:02;95382.22;;;7.80;93.52
74708;BME280;63360;50.104;8.074;2023-04-01T03:38:33;95391.50;;;7.81;93.20
74708;BME280;63360;50.104;8.074;2023-04-01T03:41:00;95384.41;;;7.78;93.32
74708;BME280;63360;50.104;8.074;2023-04-01T03:43:27;95390.00;;;7.80;94.19
74708;BME280;63360;50.104;8.074;2023-04-01T03:45:53;95387.19;;;7.85;94.43
74708;BME280;63360;50.104;8.074;2023-04-01T03:48:21;95401.22;;;7.84;93.89
74708;BME280;63360;50.104;8.074;2023-04-01T03:50:48;95397.31;;;7.90;93.57
74708;BME280;63360;50.104;8.074;2023-04-01T03:53:14;95395.78;;;7.89;93.92
74708;BME280;63360;50.104;8.074;2023-04-01T03:55:41;95391.63;;;7.84;94.52
74708;BME280;63360;50.104;8.074;2023-04-01T03:58:09;95394.28;;;7.88;93.90
74708;BME280;63360;50.104;8.074;2023-04-01T04:00:36;95384.81;;;7.80;95.05
74708;BME280;63360;50.104;8.074;2023-04-01T04:03:02;95384.63;;;7.73;95.67
74708;BME280;63360;50.104;8.074;2023-04-01T04:05:29;95371.06;;;7.64;95.96
74708;BME280;63360;50.104;8.074;2023-04-01T04:07:56;95375.69;;;7.70;96.01
74708;BME280;63360;50.104;8.074;2023-04-01T04:10:22;95378.50;;;7.65;96.66
74708;BME280;63360;50.104;8.074;2023-04-01T04:12:49;95380.75;;;7.67;96.86
74708;BME280;63360;50.104;8.074;2023-04-01T04:15:16;95390.00;;;7.80;95.31
74708;BME280;63360;50.104;8.074;2023-04-01T04:17:44;95386.97;;;7.78;95.23
74708;BME280;63360;50.104;8.074;2023-04-01T04:20:11;95393.34;;;7.80;94.14
74708;BME280;63360;50.104;8.074;2023-04-01T04:22:37;95387.22;;;7.73;95.43
74708;BME280;63360;50.104;8.074;2023-04-01T04:25:04;95404.03;;;7.79;94.80
74708;BME280;63360;50.104;8.074;2023-04-01T04:27:30;95395.50;;;7.78;95.47
74708;BME280;63360;50.104;8.074;2023-04-01T04:29:57;95377.44;;;7.66;95.38
74708;BME280;63360;50.104;8.074;2023-04-01T04:32:23;95396.69;;;7.81;94.56
74708;BME280;63360;50.104;8.074;2023-04-01T04:34:50;95389.81;;;7.73;94.46
74708;BME280;63360;50.104;8.074;2023-04-01T04:37:16;95397.03;;;7.79;94.56
74708;BME280;63360;50.104;8.074;2023-04-01T04:39:42;95386.22;;;7.77;93.39
74708;BME280;63360;50.104;8.074;2023-04-01T04:42:09;95386.16;;;7.74;94.30
74708;BME280;63360;50.104;8.074;2023-04-01T04:44:35;95390.75;;;7.80;94.42
74708;BME280;63360;50.104;8.074;2023-04-01T04:47:02;95396.41;;;7.70;95.19
74708;BME280;63360;50.104;8.074;2023-04-01T04:49:28;95402.09;;;7.76;94.83
74708;BME280;63360;50.104;8.074;2023-04-01T04:51:55;95399.84;;;7.74;95.40
74708;BME280;63360;50.104;8.074;2023-04-01T04:54:21;95396.56;;;7.77;95.68
74708;BME280;63360;50.104;8.074;2023-04-01T04:56:47;95403.69;;;7.80;94.83
74708;BME280;63360;50.104;8.074;2023-04-01T04:59:14;95401.44;;;7.79;95.27
74708;BME280;63360;50.104;8.074;2023-04-01T05:01:41;95385.50;;;7.77;93.91
74708;BME280;63360;50.104;8.074;2023-04-01T05:04:07;95395.00;;;7.73;94.68
74708;BME280;63360;50.104;8.074;2023-04-01T05:06:33;95404.34;;;7.77;95.70
74708;BME280;63360;50.104;8.074;2023-04-01T05:09:00;95396.75;;;7.69;95.69
74708;BME280;63360;50.104;8.074;2023-04-01T05:11:26;95387.97;;;7.73;95.09
74708;BME280;63360;50.104;8.074;2023-04-01T05:13:53;95398.75;;;7.75;94.58
74708;BME280;63360;50.104;8.074;2023-04-01T05:16:20;95399.84;;;7.74;95.67
74708;BME280;63360;50.104;8.074;2023-04-01T05:18:47;95394.56;;;7.71;95.21
74708;BME280;63360;50.104;8.074;2023-04-01T05:21:14;95389.72;;;7.69;94.56
74708;BME280;63360;50.104;8.074;2023-04-01T05:23:41;95386.69;;;7.67;94.58
74708;BME280;63360;50.104;8.074;2023-04-01T05:26:11;95382.94;;;7.65;94.63
74708;BME280;63360;50.104;8.074;2023-04-01T05:28:38;95389.09;;;7.60;95.29
74708;BME280;63360;50.104;8.074;2023-04-01T05:31:06;95391.56;;;7.69;94.61
74708;BME280;63360;50.104;8.074;2023-04-01T05:33:32;95390.88;;;7.72;93.34
74708;BME280;63360;50.104;8.074;2023-04-01T05:36:06;95395.75;;;7.73;94.85
74708;BME280;63360;50.104;8.074;2023-04-01T05:38:33;95398.84;;;7.79;93.74
74708;BME280;63360;50.104;8.074;2023-04-01T05:41:01;95392.50;;;7.76;94.24
74708;BME280;63360;50.104;8.074;2023-04-01T05:43:28;95394.44;;;7.79;93.43
74708;BME280;63360;50.104;8.074;2023-04-01T05:45:56;95374.84;;;7.66;94.84
74708;BME280;63360;50.104;8.074;2023-04-01T05:48:23;95395.94;;;7.80;94.52
74708;BME280;63360;50.104;8.074;2023-04-01T05:50:49;95381.63;;;7.71;93.58
74708;BME280;63360;50.104;8.074;2023-04-01T05:53:16;95383.03;;;7.68;93.09
74708;BME280;63360;50.104;8.074;2023-04-01T05:55:42;95386.34;;;7.81;93.17
74708;BME280;63360;50.104;8.074;2023-04-01T05:58:09;95380.09;;;7.82;91.93
74708;BME280;63360;50.104;8.074;2023-04-01T06:00:35;95394.09;;;7.81;93.02
74708;BME280;63360;50.104;8.074;2023-04-01T06:03:02;95388.41;;;7.75;92.92
74708;BME280;63360;50.104;8.074;2023-04-01T06:05:30;95389.34;;;7.83;92.92
74708;BME280;63360;50.104;8.074;2023-04-01T06:08:09;95379.44;;;7.85;92.48
74708;BME280;63360;50.104;8.074;2023-04-01T06:11:15;95383.31;;;7.79;92.82
74708;BME280;63360;50.104;8.074;2023-04-01T06:16:39;95392.50;;;7.76;94.43
74708;BME280;63360;50.104;8.074;2023-04-01T06:19:23;95394.88;;;7.69;95.84
74708;BME280;63360;50.104;8.074;2023-04-01T06:22:12;95396.28;;;7.67;96.21
74708;BME280;63360;50.104;8.074;2023-04-01T06:25:10;95401.34;;;7.75;96.47
74708;BME280;63360;50.104;8.074;2023-04-01T06:30:18;95402.66;;;7.69;95.47
74708;BME280;63360;50.104;8.074;2023-04-01T06:35:31;95397.41;;;7.54;98.39
74708;BME280;63360;50.104;8.074;2023-04-01T06:46:31;95413.56;;;7.63;100.00
74708;BME280;63360;50.104;8.074;2023-04-01T06:54:47;95394.53;;;7.43;100.00
74708;BME280;63360;50.104;8.074;2023-04-01T07:00:02;95388.59;;;7.43;100.00
74708;BME280;63360;50.104;8.074;2023-04-01T07:02:43;95390.09;;;7.44;100.00
74708;BME280;63360;50.104;8.074;2023-04-01T07:05:12;95388.94;;;7.41;100.00
74708;BME280;63360;50.104;8.074;2023-04-01T07:07:52;95399.91;;;7.50;100.00
74708;BME280;63360;50.104;8.074;2023-04-01T07:10:29;95395.63;;;7.42;100.00
74708;BME280;63360;50.104;8.074;2023-04-01T07:13:00;95397.00;;;7.52;100.00
74708;BME280;63360;50.104;8.074;2023-04-01T07:15:40;95399.53;;;7.64;100.00
74708;BME280;63360;50.104;8.074;2023-04-01T07:18:15;95404.28;;;7.62;100.00
74708;BME280;63360;50.104;8.074;2023-04-01T07:20:42;95392.53;;;7.64;100.00
74708;BME280;63360;50.104;8.074;2023-04-01T07:23:21;95392.50;;;7.76;100.00
74708;BME280;63360;50.104;8.074;2023-04-01T07:25:53;95392.78;;;7.87;100.00
74708;BME280;63360;50.104;8.074;2023-04-01T07:28:21;95399.31;;;7.97;100.00
74708;BME280;63360;50.104;8.074;2023-04-01T07:31:07;95411.84;;;7.94;100.00
74708;BME280;63360;50.104;8.074;2023-04-01T07:33:46;95398.28;;;7.85;100.00
74708;BME280;63360;50.104;8.074;2023-04-01T07:36:42;95411.75;;;7.91;100.00
74708;BME280;63360;50.104;8.074;2023-04-01T07:50:11;95428.69;;;7.88;100.00
74708;BME280;63360;50.104;8.074;2023-04-01T07:52:57;95425.19;;;7.97;100.00
74708;BME280;63360;50.104;8.074;2023-04-01T07:55:50;95427.56;;;8.02;100.00
74708;BME280;63360;50.104;8.074;2023-04-01T07:58:41;95431.69;;;7.90;100.00
74708;BME280;63360;50.104;8.074;2023-04-01T08:02:08;95429.03;;;7.87;100.00
74708;BME280;63360;50.104;8.074;2023-04-01T08:04:53;95442.38;;;7.89;100.00
74708;BME280;63360;50.104;8.074;2023-04-01T08:07:25;95450.38;;;7.84;100.00
74708;BME280;63360;50.104;8.074;2023-04-01T08:10:43;95439.63;;;7.82;100.00
74708;BME280;63360;50.104;8.074;2023-04-01T08:23:23;95445.91;;;7.69;100.00
74708;BME280;63360;50.104;8.074;2023-04-01T08:26:01;95465.63;;;7.73;100.00
74708;BME280;63360;50.104;8.074;2023-04-01T08:28:37;95455.22;;;7.85;100.00
74708;BME280;63360;50.104;8.074;2023-04-01T08:31:12;95456.69;;;7.71;100.00
74708;BME280;63360;50.104;8.074;2023-04-01T08:33:42;95456.88;;;7.78;100.00
74708;BME280;63360;50.104;8.074;2023-04-01T08:36:12;95454.03;;;7.83;100.00
74708;BME280;63360;50.104;8.074;2023-04-01T09:01:02;95467.09;;;7.86;100.00
74708;BME280;63360;50.104;8.074;2023-04-01T09:06:21;95474.53;;;7.88;100.00
74708;BME280;63360;50.104;8.074;2023-04-01T09:14:22;95461.69;;;7.91;100.00
74708;BME280;63360;50.104;8.074;2023-04-01T09:25:30;95489.69;;;8.02;100.00
74708;BME280;63360;50.104;8.074;2023-04-01T09:28:10;95482.88;;;8.09;100.00
74708;BME280;63360;50.104;8.074;2023-04-01T09:31:08;95490.44;;;8.02;100.00
74708;BME280;63360;50.104;8.074;2023-04-01T09:34:00;95485.91;;;8.11;100.00
74708;BME280;63360;50.104;8.074;2023-04-01T09:39:31;95494.28;;;8.20;100.00
74708;BME280;63360;50.104;8.074;2023-04-01T09:44:34;95492.66;;;8.28;100.00
74708;BME280;63360;50.104;8.074;2023-04-01T09:47:16;95501.81;;;8.25;100.00
74708;BME280;63360;50.104;8.074;2023-04-01T09:49:58;95497.50;;;8.29;100.00
74708;BME280;63360;50.104;8.074;2023-04-01T09:52:49;95497.97;;;8.19;100.00
74708;BME280;63360;50.104;8.074;2023-04-01T10:23:45;95526.88;;;8.49;100.00
74708;BME280;63360;50.104;8.074;2023-04-01T10:26:37;95531.28;;;8.61;100.00
74708;BME280;63360;50.104;8.074;2023-04-01T10:29:17;95527.75;;;8.53;100.00
74708;BME280;63360;50.104;8.074;2023-04-01T10:37:49;95531.88;;;8.54;100.00
74708;BME280;63360;50.104;8.074;2023-04-01T10:52:04;95525.16;;;8.53;100.00
74708;BME280;63360;50.104;8.074;2023-04-01T10:55:01;95522.75;;;8.60;100.00
74708;BME280;63360;50.104;8.074;2023-04-01T10:58:04;95519.75;;;8.74;100.00
74708;BME280;63360;50.104;8.074;2023-04-01T11:03:51;95507.47;;;8.71;100.00
74708;BME280;63360;50.104;8.074;2023-04-01T11:09:32;95515.09;;;8.95;100.00
74708;BME280;63360;50.104;8.074;2023-04-01T11:12:45;95515.09;;;9.10;100.00
74708;BME280;63360;50.104;8.074;2023-04-01T11:15:42;95523.66;;;9.11;100.00
74708;BME280;63360;50.104;8.074;2023-04-01T11:31:58;95543.63;;;8.95;100.00
74708;BME280;63360;50.104;8.074;2023-04-01T11:37:29;95543.56;;;9.07;100.00
74708;BME280;63360;50.104;8.074;2023-04-01T11:40:59;95547.59;;;9.04;100.00
74708;BME280;63360;50.104;8.074;2023-04-01T11:49:14;95549.59;;;9.11;100.00
74708;BME280;63360;50.104;8.074;2023-04-01T11:54:59;95546.22;;;9.10;100.00
74708;BME280;63360;50.104;8.074;2023-04-01T11:58:07;95566.41;;;9.17;100.00
74708;BME280;63360;50.104;8.074;2023-04-01T12:01:03;95558.03;;;9.08;100.00
74708;BME280;63360;50.104;8.074;2023-04-01T12:06:48;95566.66;;;9.12;100.00
74708;BME280;63360;50.104;8.074;2023-04-01T12:09:44;95559.13;;;9.07;100.00
74708;BME280;63360;50.104;8.074;2023-04-01T12:12:32;95565.50;;;9.09;100.00
74708;BME280;63360;50.104;8.074;2023-04-01T12:18:37;95583.25;;;9.23;100.00
74708;BME280;63360;50.104;8.074;2023-04-01T12:21:24;95567.31;;;9.09;100.00
74708;BME280;63360;50.104;8.074;2023-04-01T12:24:11;95591.59;;;9.17;100.00
74708;BME280;63360;50.104;8.074;2023-04-01T12:27:02;95591.44;;;9.09;100.00
74708;BME280;63360;50.104;8.074;2023-04-01T12:35:52;95593.13;;;9.18;100.00
74708;BME280;63360;50.104;8.074;2023-04-01T12:38:31;95599.41;;;9.32;100.00
74708;BME280;63360;50.104;8.074;2023-04-01T12:41:17;95589.25;;;9.27;100.00
74708;BME280;63360;50.104;8.074;2023-04-01T12:44:23;95591.69;;;9.36;100.00
74708;BME280;63360;50.104;8.074;2023-04-01T12:50:16;95594.28;;;9.51;100.00
74708;BME280;63360;50.104;8.074;2023-04-01T12:52:58;95585.59;;;9.59;100.00
74708;BME280;63360;50.104;8.074;2023-04-01T12:58:06;95594.13;;;9.75;100.00
74708;BME280;63360;50.104;8.074;2023-04-01T13:09:14;95607.53;;;9.62;100.00
74708;BME280;63360;50.104;8.074;2023-04-01T13:15:05;95603.91;;;9.51;100.00
74708;BME280;63360;50.104;8.074;2023-04-01T13:17:39;95615.31;;;9.46;100.00
74708;BME280;63360;50.104;8.074;2023-04-01T13:25:38;95624.50;;;9.28;100.00
74708;BME280;63360;50.104;8.074;2023-04-01T13:28:11;95615.22;;;9.27;100.00
74708;BME280;63360;50.104;8.074;2023-04-01T13:30:51;95618.06;;;9.22;100.00
74708;BME280;63360;50.104;8.074;2023-04-01T13:33:56;95620.91;;;9.33;100.00
74708;BME280;63360;50.104;8.074;2023-04-01T13:37:31;95625.00;;;9.18;100.00
74708;BME280;63360;50.104;8.074;2023-04-01T13:39:43;95633.00;;;9.13;100.00
74708;BME280;63360;50.104;8.074;2023-04-01T13:42:29;95630.50;;;9.17;100.00
74708;BME280;63360;50.104;8.074;2023-04-01T13:45:12;95624.16;;;9.14;100.00
74708;BME280;63360;50.104;8.074;2023-04-01T13:50:31;95629.09;;;9.19;100.00
74708;BME280;63360;50.104;8.074;2023-04-01T13:56:03;95629.78;;;9.32;100.00
74708;BME280;63360;50.104;8.074;2023-04-01T13:58:52;95623.91;;;9.19;100.00
74708;BME280;63360;50.104;8.074;2023-04-01T14:07:50;95640.22;;;9.20;100.00
74708;BME280;63360;50.104;8.074;2023-04-01T14:10:39;95635.97;;;9.27;100.00
74708;BME280;63360;50.104;8.074;2023-04-01T14:13:31;95640.66;;;9.37;100.00
74708;BME280;63360;50.104;8.074;2023-04-01T14:18:45;95648.09;;;9.23;100.00
74708;BME280;63360;50.104;8.074;2023-04-01T14:21:27;95648.75;;;9.20;100.00
74708;BME280;63360;50.104;8.074;2023-04-01T14:24:07;95651.69;;;9.19;100.00
74708;BME280;63360;50.104;8.074;2023-04-01T14:29:43;95662.63;;;9.12;100.00
74708;BME280;63360;50.104;8.074;2023-04-01T14:32:39;95670.22;;;9.05;100.00
74708;BME280;63360;50.104;8.074;2023-04-01T14:35:23;95654.28;;;8.91;100.00
74708;BME280;63360;50.104;8.074;2023-04-01T14:43:42;95672.16;;;9.08;100.00
74708;BME280;63360;50.104;8.074;2023-04-01T14:48:56;95673.38;;;8.98;100.00
74708;BME280;63360;50.104;8.074;2023-04-01T14:51:31;95655.38;;;8.90;100.00
74708;BME280;63360;50.104;8.074;2023-04-01T14:56:47;95675.50;;;9.08;100.00
74708;BME280;63360;50.104;8.074;2023-04-01T14:59:27;95663.94;;;9.06;100.00
74708;BME280;63360;50.104;8.074;2023-04-01T15:02:08;95681.88;;;9.11;100.00
74708;BME280;63360;50.104;8.074;2023-04-01T15:04:53;95680.28;;;9.06;100.00
74708;BME280;63360;50.104;8.074;2023-04-01T15:07:38;95681.88;;;9.11;100.00
74708;BME280;63360;50.104;8.074;2023-04-01T15:10:23;95692.94;;;9.24;100.00
74708;BME280;63360;50.104;8.074;2023-04-01T15:13:05;95687.56;;;9.17;100.00
74708;BME280;63360;50.104;8.074;2023-04-01T15:24:43;95697.28;;;9.20;100.00
74708;BME280;63360;50.104;8.074;2023-04-01T15:27:24;95703.78;;;9.13;100.00
74708;BME280;63360;50.104;8.074;2023-04-01T15:36:02;95707.16;;;8.74;100.00
74708;BME280;63360;50.104;8.074;2023-04-01T15:38:50;95729.72;;;8.74;100.00
74708;BME280;63360;50.104;8.074;2023-04-01T15:44:34;95723.78;;;8.73;100.00
74708;BME280;63360;50.104;8.074;2023-04-01T15:52:56;95735.78;;;8.66;100.00
74708;BME280;63360;50.104;8.074;2023-04-01T15:55:54;95734.38;;;8.68;100.00
74708;BME280;63360;50.104;8.074;2023-04-01T15:58:40;95729.84;;;8.65;100.00
74708;BME280;63360;50.104;8.074;2023-04-01T16:07:29;95743.34;;;8.71;100.00
74708;BME280;63360;50.104;8.074;2023-04-01T16:10:06;95744.53;;;8.73;100.00
74708;BME280;63360;50.104;8.074;2023-04-01T16:12:51;95749.63;;;8.70;100.00
74708;BME280;63360;50.104;8.074;2023-04-01T16:15:29;95746.50;;;8.64;100.00
74708;BME280;63360;50.104;8.074;2023-04-01T16:21:04;95740.56;;;8.64;100.00
74708;BME280;63360;50.104;8.074;2023-04-01T16:23:40;95740.78;;;8.59;100.00
74708;BME280;63360;50.104;8.074;2023-04-01T16:26:26;95757.94;;;8.63;100.00
74708;BME280;63360;50.104;8.074;2023-04-01T16:28:57;95758.94;;;8.59;100.00
74708;BME280;63360;50.104;8.074;2023-04-01T16:31:38;95753.44;;;8.48;100.00
74708;BME280;63360;50.104;8.074;2023-04-01T16:34:34;95769.72;;;8.61;100.00
74708;BME280;63360;50.104;8.074;2023-04-01T16:37:19;95766.91;;;8.53;100.00
74708;BME280;63360;50.104;8.074;2023-04-01T16:40:02;95771.78;;;8.43;100.00
74708;BME280;63360;50.104;8.074;2023-04-01T16:42:51;95777.41;;;8.45;100.00
74708;BME280;63360;50.104;8.074;2023-04-01T16:45:38;95778.03;;;8.42;100.00
74708;BME280;63360;50.104;8.074;2023-04-01T16:48:12;95763.63;;;8.20;100.00
74708;BME280;63360;50.104;8.074;2023-04-01T16:50:44;95786.03;;;8.37;100.00
74708;BME280;63360;50.104;8.074;2023-04-01T16:53:25;95789.13;;;8.30;100.00
74708;BME280;63360;50.104;8.074;2023-04-01T16:56:13;95800.25;;;8.31;100.00
74708;BME280;63360;50.104;8.074;2023-04-01T17:01:26;95794.06;;;8.23;100.00
74708;BME280;63360;50.104;8.074;2023-04-01T17:04:00;95804.38;;;8.32;100.00
74708;BME280;63360;50.104;8.074;2023-04-01T17:12:56;95802.59;;;8.24;100.00
74708;BME280;63360;50.104;8.074;2023-04-01T17:18:10;95813.59;;;8.21;100.00
74708;BME280;63360;50.104;8.074;2023-04-01T17:20:58;95832.81;;;8.20;100.00
74708;BME280;63360;50.104;8.074;2023-04-01T17:23:35;95834.28;;;8.29;100.00
74708;BME280;63360;50.104;8.074;2023-04-01T17:28:45;95836.16;;;8.08;100.00
74708;BME280;63360;50.104;8.074;2023-04-01T17:34:23;95842.19;;;8.12;100.00
74708;BME280;63360;50.104;8.074;2023-04-01T17:36:45;95841.31;;;8.08;100.00
74708;BME280;63360;50.104;8.074;2023-04-01T17:42:11;95852.88;;;8.11;100.00
74708;BME280;63360;50.104;8.074;2023-04-01T17:44:57;95847.69;;;8.11;100.00
74708;BME280;63360;50.104;8.074;2023-04-01T17:47:34;95852.44;;;8.09;100.00
74708;BME280;63360;50.104;8.074;2023-04-01T17:50:22;95859.56;;;8.12;100.00
74708;BME280;63360;50.104;8.074;2023-04-01T17:56:06;95863.88;;;8.08;100.00
74708;BME280;63360;50.104;8.074;2023-04-01T17:58:40;95877.69;;;8.12;100.00
74708;BME280;63360;50.104;8.074;2023-04-01T18:10:01;95889.22;;;8.02;100.00
74708;BME280;63360;50.104;8.074;2023-04-01T18:15:24;95897.31;;;8.01;100.00
74708;BME280;63360;50.104;8.074;2023-04-01T18:18:35;95896.19;;;7.89;100.00
74708;BME280;63360;50.104;8.074;2023-04-01T18:23:57;95903.50;;;7.87;100.00
74708;BME280;63360;50.104;8.074;2023-04-01T18:26:31;95903.56;;;7.79;100.00
74708;BME280;63360;50.104;8.074;2023-04-01T18:29:04;95900.19;;;7.66;100.00
74708;BME280;63360;50.104;8.074;2023-04-01T18:31:44;95911.06;;;7.72;100.00
74708;BME280;63360;50.104;8.074;2023-04-01T18:34:20;95920.56;;;7.68;100.00
74708;BME280;63360;50.104;8.074;2023-04-01T18:37:12;95922.72;;;7.66;100.00
74708;BME280;63360;50.104;8.074;2023-04-01T18:39:47;95911.97;;;7.55;100.00
74708;BME280;63360;50.104;8.074;2023-04-01T18:44:59;95921.75;;;7.50;100.00
74708;BME280;63360;50.104;8.074;2023-04-01T18:47:47;95933.44;;;7.56;100.00
74708;BME280;63360;50.104;8.074;2023-04-01T18:50:51;95935.03;;;7.69;100.00
74708;BME280;63360;50.104;8.074;2023-04-01T18:53:25;95928.25;;;7.56;100.00
74708;BME280;63360;50.104;8.074;2023-04-01T18:55:57;95926.94;;;7.50;100.00
74708;BME280;63360;50.104;8.074;2023-04-01T19:01:26;95954.75;;;7.53;100.00
74708;BME280;63360;50.104;8.074;2023-04-01T19:09:21;95971.56;;;7.38;100.00
74708;BME280;63360;50.104;8.074;2023-04-01T19:20:43;95979.38;;;7.29;100.00
74708;BME280;63360;50.104;8.074;2023-04-01T19:25:51;95970.59;;;7.22;100.00
74708;BME280;63360;50.104;8.074;2023-04-01T19:36:49;95997.25;;;7.14;100.00
74708;BME280;63360;50.104;8.074;2023-04-01T19:39:33;95994.53;;;7.10;100.00